createdAt,value
2018-06-01T00:00:45.410Z,101365.28
2018-06-01T00:03:11.566Z,101364.08
2018-06-01T00:05:37.332Z,101364.89
2018-06-01T00:08:03.068Z,101358.75
2018-06-01T00:10:28.799Z,101357.64
2018-06-01T00:12:55.238Z,101352.88
2018-06-01T00:15:20.975Z,101348.70
2018-06-01T00:17:46.719Z,101349.89
2018-06-01T00:20:12.450Z,101342.52
2018-06-01T00:22:38.185Z,101348.23
2018-06-01T00:25:03.951Z,101347.61
2018-06-01T00:27:29.648Z,101340.34
2018-06-01T00:29:55.384Z,101343.46
2018-06-01T00:32:21.123Z,101335.02
2018-06-01T00:34:46.843Z,101332.53
2018-06-01T00:37:13.134Z,101338.37
2018-06-01T00:39:38.937Z,101338.75
2018-06-01T00:42:05.820Z,101340.99
2018-06-01T00:44:31.576Z,101338.27
2018-06-01T00:46:57.284Z,101332.16
2018-06-01T00:49:23.004Z,101334.95
2018-06-01T00:51:48.735Z,101336.41
2018-06-01T00:54:14.471Z,101338.23
2018-06-01T00:56:40.201Z,101329.35
2018-06-01T00:59:05.941Z,101323.52
2018-06-01T01:01:31.677Z,101325.77
2018-06-01T01:03:57.412Z,101331.55
2018-06-01T01:06:23.143Z,101323.91
2018-06-01T01:08:48.881Z,101322.78
2018-06-01T01:11:14.668Z,101324.73
2018-06-01T01:13:40.398Z,101316.87
2018-06-01T01:16:06.124Z,101318.30
2018-06-01T01:18:31.857Z,101317.98
2018-06-01T01:20:57.593Z,101315.77
2018-06-01T01:23:23.336Z,101317.16
2018-06-01T01:25:49.071Z,101312.41
2018-06-01T01:28:14.803Z,101312.04
2018-06-01T01:30:40.535Z,101310.75
2018-06-01T01:33:06.279Z,101316.48
2018-06-01T01:35:32.000Z,101313.87
2018-06-01T01:37:57.738Z,101314.43
2018-06-01T01:40:23.460Z,101305.71
2018-06-01T01:42:49.184Z,101307.00
2018-06-01T01:45:14.928Z,101310.78
2018-06-01T01:47:40.648Z,101308.84
2018-06-01T01:50:06.387Z,101307.67
2018-06-01T01:52:32.126Z,101307.52
2018-06-01T01:54:57.861Z,101311.95
2018-06-01T01:57:23.604Z,101314.61
2018-06-01T01:59:49.345Z,101317.34
2018-06-01T02:02:15.079Z,101320.11
2018-06-01T02:04:40.823Z,101321.61
2018-06-01T02:07:06.561Z,101328.14
2018-06-01T02:09:32.306Z,101327.83
2018-06-01T02:11:58.036Z,101325.28
2018-06-01T02:14:23.776Z,101320.18
2018-06-01T02:16:49.511Z,101313.83
2018-06-01T02:19:15.252Z,101322.23
2018-06-01T02:21:40.983Z,101322.63
2018-06-01T02:24:06.727Z,101318.35
2018-06-01T02:26:32.465Z,101318.89
2018-06-01T02:28:58.208Z,101322.23
2018-06-01T02:31:23.948Z,101326.30
2018-06-01T02:33:49.685Z,101330.58
2018-06-01T02:36:15.416Z,101327.85
2018-06-01T02:38:41.493Z,101319.81
2018-06-01T02:41:07.242Z,101326.05
2018-06-01T02:43:39.968Z,101313.66
2018-06-01T02:46:05.709Z,101315.98
2018-06-01T02:48:31.448Z,101324.66
2018-06-01T02:50:57.186Z,101323.21
2018-06-01T02:53:22.921Z,101324.70
2018-06-01T02:55:48.655Z,101319.61
2018-06-01T02:58:14.392Z,101321.05
2018-06-01T03:00:40.127Z,101321.10
2018-06-01T03:03:05.856Z,101320.04
2018-06-01T03:05:31.608Z,101313.45
2018-06-01T03:07:57.349Z,101320.27
2018-06-01T03:10:23.125Z,101309.51
2018-06-01T03:12:48.849Z,101314.00
2018-06-01T03:15:14.617Z,101314.84
2018-06-01T03:17:40.355Z,101315.12
2018-06-01T03:20:06.097Z,101323.05
2018-06-01T03:22:31.825Z,101326.38
2018-06-01T03:24:57.572Z,101325.38
2018-06-01T03:27:23.300Z,101326.79
2018-06-01T03:29:49.054Z,101333.10
2018-06-01T03:32:14.764Z,101341.73
2018-06-01T03:34:40.509Z,101341.19
2018-06-01T03:37:06.241Z,101333.41
2018-06-01T03:39:31.985Z,101333.19
2018-06-01T03:41:57.703Z,101330.34
2018-06-01T03:44:23.436Z,101336.47
2018-06-01T03:46:49.178Z,101334.39
2018-06-01T03:49:14.922Z,101341.95
2018-06-01T03:51:40.676Z,101343.61
2018-06-01T03:54:06.421Z,101333.61
2018-06-01T03:56:32.158Z,101343.16
2018-06-01T03:58:57.905Z,101341.78
2018-06-01T04:01:23.641Z,101345.72
2018-06-01T04:03:49.380Z,101349.57
2018-06-01T04:06:15.119Z,101350.51
2018-06-01T04:08:40.847Z,101354.66
2018-06-01T04:11:06.577Z,101359.52
2018-06-01T04:13:32.312Z,101354.58
2018-06-01T04:15:58.048Z,101348.67
2018-06-01T04:18:23.776Z,101344.05
2018-06-01T04:20:49.512Z,101355.33
2018-06-01T04:23:15.254Z,101351.22
2018-06-01T04:25:41.005Z,101342.38
2018-06-01T04:28:06.728Z,101345.88
2018-06-01T04:30:32.473Z,101351.73
2018-06-01T04:32:58.192Z,101346.55
2018-06-01T04:35:23.945Z,101339.66
2018-06-01T04:37:49.681Z,101343.04
2018-06-01T04:40:15.426Z,101342.34
2018-06-01T04:42:41.164Z,101347.73
2018-06-01T04:45:06.914Z,101347.48
2018-06-01T04:47:32.905Z,101347.84
2018-06-01T04:49:58.646Z,101351.40
2018-06-01T04:52:24.379Z,101345.90
2018-06-01T04:54:50.120Z,101348.80
2018-06-01T04:57:15.853Z,101349.92
2018-06-01T04:59:41.604Z,101348.48
2018-06-01T05:02:07.344Z,101347.06
2018-06-01T05:04:33.071Z,101343.02
2018-06-01T05:06:58.806Z,101345.59
2018-06-01T05:09:24.544Z,101345.55
2018-06-01T05:11:50.280Z,101350.88
2018-06-01T05:14:16.011Z,101353.89
2018-06-01T05:16:41.783Z,101353.27
2018-06-01T05:19:07.498Z,101357.18
2018-06-01T05:21:33.254Z,101357.47
2018-06-01T05:23:58.982Z,101344.87
2018-06-01T05:26:24.736Z,101344.90
2018-06-01T05:28:50.459Z,101342.56
2018-06-01T05:31:16.200Z,101339.64
2018-06-01T05:33:41.933Z,101338.53
2018-06-01T05:36:07.687Z,101339.33
2018-06-01T05:38:33.432Z,101341.42
2018-06-01T05:40:59.192Z,101339.73
2018-06-01T05:43:24.948Z,101334.66
2018-06-01T05:45:50.682Z,101330.49
2018-06-01T05:48:16.424Z,101328.60
2018-06-01T05:50:42.159Z,101334.05
2018-06-01T05:53:07.905Z,101336.48
2018-06-01T05:55:33.641Z,101329.00
2018-06-01T05:58:06.180Z,101334.11
2018-06-01T06:00:31.940Z,101322.69
2018-06-01T06:02:57.663Z,101339.03
2018-06-01T06:05:23.411Z,101329.67
2018-06-01T06:07:49.140Z,101329.41
2018-06-01T06:10:14.891Z,101322.61
2018-06-01T06:12:40.635Z,101323.06
2018-06-01T06:15:06.366Z,101319.31
2018-06-01T06:17:32.104Z,101311.40
2018-06-01T06:19:57.858Z,101312.11
2018-06-01T06:22:23.607Z,101307.42
2018-06-01T06:24:49.344Z,101308.42
2018-06-01T06:27:15.093Z,101303.98
2018-06-01T06:29:40.824Z,101312.25
2018-06-01T06:32:06.569Z,101311.51
2018-06-01T06:34:32.301Z,101312.27
2018-06-01T06:36:58.045Z,101311.48
2018-06-01T06:39:23.775Z,101314.02
2018-06-01T06:41:49.523Z,101314.02
2018-06-01T06:44:15.274Z,101315.59
2018-06-01T06:46:41.017Z,101315.97
2018-06-01T06:49:06.745Z,101311.89
2018-06-01T06:51:32.468Z,101308.64
2018-06-01T06:53:58.209Z,101313.08
2018-06-01T06:56:23.944Z,101312.47
2018-06-01T06:58:49.685Z,101305.28
2018-06-01T07:01:15.420Z,101307.12
2018-06-01T07:03:41.157Z,101309.45
2018-06-01T07:06:06.924Z,101312.84
2018-06-01T07:08:32.687Z,101305.92
2018-06-01T07:10:58.425Z,101308.41
2018-06-01T07:13:24.176Z,101302.34
2018-06-01T07:15:49.938Z,101308.37
2018-06-01T07:18:15.744Z,101308.37
2018-06-01T07:20:41.420Z,101304.61
2018-06-01T07:23:07.156Z,101314.03
2018-06-01T07:25:32.909Z,101313.78
2018-06-01T07:27:58.648Z,101312.01
2018-06-01T07:30:24.387Z,101317.31
2018-06-01T07:32:50.147Z,101316.89
2018-06-01T07:35:15.892Z,101310.66
2018-06-01T07:37:41.642Z,101309.87
2018-06-01T07:40:07.376Z,101310.66
2018-06-01T07:42:33.127Z,101307.60
2018-06-01T07:44:58.867Z,101312.94
2018-06-01T07:47:24.615Z,101310.24
2018-06-01T07:49:50.356Z,101314.84
2018-06-01T07:52:16.119Z,101314.16
2018-06-01T07:54:41.857Z,101316.08
2018-06-01T07:57:07.598Z,101313.28
2018-06-01T07:59:33.329Z,101313.50
2018-06-01T08:01:59.072Z,101322.03
2018-06-01T08:04:24.822Z,101306.02
2018-06-01T08:06:50.577Z,101309.74
2018-06-01T08:09:16.377Z,101304.34
2018-06-01T08:11:42.093Z,101302.17
2018-06-01T08:14:07.820Z,101310.62
2018-06-01T08:16:33.565Z,101309.92
2018-06-01T08:18:59.313Z,101318.41
2018-06-01T08:21:25.071Z,101319.91
2018-06-01T08:23:50.818Z,101320.52
2018-06-01T08:26:16.563Z,101316.68
2018-06-01T08:28:42.318Z,101312.31
2018-06-01T08:31:08.043Z,101302.49
2018-06-01T08:33:33.783Z,101304.66
2018-06-01T08:35:59.517Z,101310.41
2018-06-01T08:38:25.261Z,101302.80
2018-06-01T08:40:50.994Z,101300.94
2018-06-01T08:43:16.754Z,101305.42
2018-06-01T08:45:42.508Z,101302.17
2018-06-01T08:48:08.258Z,101297.41
2018-06-01T08:50:33.995Z,101295.18
2018-06-01T08:52:59.733Z,101293.36
2018-06-01T08:55:25.484Z,101299.53
2018-06-01T08:57:51.238Z,101291.42
2018-06-01T09:00:16.969Z,101288.73
2018-06-01T09:02:42.718Z,101292.87
2018-06-01T09:05:08.456Z,101290.23
2018-06-01T09:07:34.192Z,101294.28
2018-06-01T09:09:59.970Z,101300.34
2018-06-01T09:12:25.680Z,101292.64
2018-06-01T09:14:51.411Z,101298.70
2018-06-01T09:17:17.170Z,101300.63
2018-06-01T09:19:42.923Z,101304.52
2018-06-01T09:22:08.718Z,101298.89
2018-06-01T09:24:34.448Z,101314.50
2018-06-01T09:27:00.214Z,101319.31
2018-06-01T09:29:25.989Z,101321.39
2018-06-01T09:31:51.725Z,101318.63
2018-06-01T09:34:17.492Z,101324.11
2018-06-01T09:36:43.236Z,101325.91
2018-06-01T09:39:08.981Z,101331.02
2018-06-01T09:41:34.732Z,101329.21
2018-06-01T09:44:00.483Z,101327.41
2018-06-01T09:46:26.233Z,101326.39
2018-06-01T09:48:51.968Z,101332.52
2018-06-01T09:51:17.703Z,101335.76
2018-06-01T09:53:43.456Z,101333.00
2018-06-01T09:56:09.197Z,101335.02
2018-06-01T09:58:34.935Z,101333.63
2018-06-01T10:01:00.687Z,101326.69
2018-06-01T10:03:26.438Z,101321.99
2018-06-01T10:05:52.197Z,101329.67
2018-06-01T10:08:17.961Z,101325.52
2018-06-01T10:10:44.060Z,101328.87
2018-06-01T10:13:09.848Z,101325.88
2018-06-01T10:15:35.657Z,101327.38
2018-06-01T10:18:01.365Z,101324.94
2018-06-01T10:20:27.142Z,101327.10
2018-06-01T10:22:52.898Z,101323.02
2018-06-01T10:25:18.641Z,101322.98
2018-06-01T10:27:44.457Z,101315.20
2018-06-01T10:30:10.258Z,101310.36
2018-06-01T10:32:36.492Z,101311.83
2018-06-01T10:35:02.271Z,101309.24
2018-06-01T10:37:28.012Z,101300.26
2018-06-01T10:39:53.761Z,101305.30
2018-06-01T10:42:19.505Z,101301.56
2018-06-01T10:44:45.742Z,101300.50
2018-06-01T10:47:11.492Z,101295.45
2018-06-01T10:49:37.785Z,101300.03
2018-06-01T10:52:04.253Z,101302.55
2018-06-01T10:54:30.053Z,101294.69
2018-06-01T10:56:55.785Z,101299.47
2018-06-01T10:59:21.533Z,101298.65
2018-06-01T11:01:47.285Z,101290.03
2018-06-01T11:04:13.024Z,101297.14
2018-06-01T11:06:38.762Z,101295.12
2018-06-01T11:09:04.522Z,101285.13
2018-06-01T11:11:30.273Z,101285.95
2018-06-01T11:13:56.020Z,101292.97
2018-06-01T11:16:21.759Z,101287.33
2018-06-01T11:18:47.496Z,101283.63
2018-06-01T11:21:13.350Z,101278.77
2018-06-01T11:23:39.767Z,101281.30
2018-06-01T11:26:05.555Z,101278.09
2018-06-01T11:28:31.330Z,101278.06
2018-06-01T11:30:57.085Z,101272.56
2018-06-01T11:33:22.838Z,101264.65
2018-06-01T11:35:48.580Z,101271.61
2018-06-01T11:38:14.331Z,101263.91
2018-06-01T11:40:40.083Z,101262.30
2018-06-01T11:43:05.843Z,101261.52
2018-06-01T11:45:31.603Z,101263.03
2018-06-01T11:47:57.356Z,101264.10
2018-06-01T11:50:23.122Z,101260.86
2018-06-01T11:52:48.879Z,101260.54
2018-06-01T11:55:14.645Z,101254.86
2018-06-01T11:57:40.400Z,101257.09
2018-06-01T12:00:06.180Z,101260.83
2018-06-01T12:02:32.067Z,101255.63
2018-06-01T12:04:57.821Z,101248.33
2018-06-01T12:07:23.689Z,101251.19
2018-06-01T12:09:49.840Z,101255.45
2018-06-01T12:12:15.584Z,101258.45
2018-06-01T12:14:41.349Z,101249.96
2018-06-01T12:17:07.285Z,101257.38
2018-06-01T12:19:33.048Z,101260.56
2018-06-01T12:21:58.793Z,101260.22
2018-06-01T12:24:24.542Z,101254.78
2018-06-01T12:26:50.290Z,101249.31
2018-06-01T12:29:16.060Z,101253.87
2018-06-01T12:31:41.806Z,101250.98
2018-06-01T12:34:07.550Z,101246.06
2018-06-01T12:36:33.306Z,101247.13
2018-06-01T12:38:59.068Z,101261.18
2018-06-01T12:41:24.813Z,101257.89
2018-06-01T12:43:50.552Z,101253.48
2018-06-01T12:46:16.286Z,101258.05
2018-06-01T12:48:42.032Z,101256.31
2018-06-01T12:51:07.781Z,101251.30
2018-06-01T12:53:33.532Z,101253.36
2018-06-01T12:55:59.276Z,101246.00
2018-06-01T12:58:25.008Z,101246.73
2018-06-01T13:00:50.747Z,101239.28
2018-06-01T13:03:16.482Z,101240.67
2018-06-01T13:05:42.246Z,101239.72
2018-06-01T13:08:07.992Z,101235.31
2018-06-01T13:10:33.741Z,101228.52
2018-06-01T13:12:59.468Z,101224.39
2018-06-01T13:15:25.231Z,101227.86
2018-06-01T13:17:50.989Z,101223.65
2018-06-01T13:20:16.760Z,101220.91
2018-06-01T13:22:42.505Z,101214.41
2018-06-01T13:25:08.253Z,101218.31
2018-06-01T13:27:34.016Z,101210.19
2018-06-01T13:29:59.758Z,101219.19
2018-06-01T13:32:25.493Z,101209.05
2018-06-01T13:34:51.251Z,101208.75
2018-06-01T13:37:16.996Z,101216.29
2018-06-01T13:39:42.736Z,101215.55
2018-06-01T13:42:08.473Z,101217.53
2018-06-01T13:44:34.230Z,101220.63
2018-06-01T13:46:59.970Z,101214.65
2018-06-01T13:49:25.714Z,101214.34
2018-06-01T13:51:51.461Z,101211.59
2018-06-01T13:54:17.207Z,101209.89
2018-06-01T13:56:42.957Z,101212.77
2018-06-01T13:59:08.706Z,101205.19
2018-06-01T14:01:34.465Z,101202.11
2018-06-01T14:04:00.225Z,101205.02
2018-06-01T14:06:26.000Z,101204.05
2018-06-01T14:08:51.753Z,101197.25
2018-06-01T14:11:17.512Z,101207.31
2018-06-01T14:13:43.329Z,101209.25
2018-06-01T14:16:09.089Z,101197.05
2018-06-01T14:18:34.828Z,101190.17
2018-06-01T14:21:00.619Z,101196.55
2018-06-01T14:23:26.363Z,101194.64
2018-06-01T14:25:52.112Z,101194.72
2018-06-01T14:28:17.855Z,101194.13
2018-06-01T14:30:43.605Z,101193.16
2018-06-01T14:33:09.369Z,101177.34
2018-06-01T14:35:35.116Z,101181.38
2018-06-01T14:38:00.865Z,101181.23
2018-06-01T14:40:26.596Z,101172.27
2018-06-01T14:42:52.334Z,101167.39
2018-06-01T14:45:18.076Z,101164.22
2018-06-01T14:47:43.809Z,101162.69
2018-06-01T14:50:09.597Z,101163.77
2018-06-01T14:52:35.328Z,101147.17
2018-06-01T14:55:01.068Z,101154.25
2018-06-01T14:57:26.818Z,101153.91
2018-06-01T14:59:52.565Z,101147.06
2018-06-01T15:02:18.308Z,101153.42
2018-06-01T15:04:44.041Z,101151.73
2018-06-01T15:07:09.794Z,101151.59
2018-06-01T15:09:35.527Z,101156.86
2018-06-01T15:12:01.281Z,101154.20
2018-06-01T15:14:27.022Z,101150.35
2018-06-01T15:16:52.776Z,101150.22
2018-06-01T15:19:18.525Z,101145.39
2018-06-01T15:21:44.319Z,101147.59
2018-06-01T15:24:10.060Z,101151.06
2018-06-01T15:26:35.812Z,101147.13
2018-06-01T15:29:01.574Z,101134.45
2018-06-01T15:31:27.342Z,101133.20
2018-06-01T15:33:53.123Z,101130.48
2018-06-01T15:36:18.863Z,101129.77
2018-06-01T15:38:44.608Z,101133.28
2018-06-01T15:41:10.363Z,101138.72
2018-06-01T15:43:36.081Z,101141.94
2018-06-01T15:46:01.824Z,101139.22
2018-06-01T15:48:27.568Z,101136.73
2018-06-01T15:50:53.341Z,101131.71
2018-06-01T15:53:19.068Z,101140.89
2018-06-01T15:55:44.805Z,101133.83
2018-06-01T15:58:10.553Z,101137.38
2018-06-01T16:00:36.300Z,101128.36
2018-06-01T16:03:02.049Z,101120.75
2018-06-01T16:05:27.811Z,101122.86
2018-06-01T16:07:53.552Z,101120.33
2018-06-01T16:10:19.292Z,101116.78
2018-06-01T16:12:45.069Z,101117.38
2018-06-01T16:15:10.813Z,101115.29
2018-06-01T16:17:36.576Z,101113.47
2018-06-01T16:20:02.341Z,101115.69
2018-06-01T16:22:28.080Z,101114.13
2018-06-01T16:24:53.821Z,101115.80
2018-06-01T16:27:19.580Z,101109.66
2018-06-01T16:29:45.326Z,101119.84
2018-06-01T16:32:11.090Z,101124.28
2018-06-01T16:34:36.816Z,101124.19
2018-06-01T16:37:02.564Z,101118.33
2018-06-01T16:39:28.292Z,101130.95
2018-06-01T16:41:54.032Z,101129.86
2018-06-01T16:44:19.784Z,101131.77
2018-06-01T16:46:45.532Z,101139.83
2018-06-01T16:49:11.265Z,101143.54
2018-06-01T16:51:37.018Z,101143.62
2018-06-01T16:54:02.776Z,101141.22
2018-06-01T16:56:28.508Z,101135.56
2018-06-01T16:58:54.253Z,101134.75
2018-06-01T17:01:19.993Z,101141.31
2018-06-01T17:03:45.744Z,101138.37
2018-06-01T17:06:11.479Z,101146.22
2018-06-01T17:08:37.255Z,101148.28
2018-06-01T17:11:03.000Z,101146.55
2018-06-01T17:13:28.760Z,101146.61
2018-06-01T17:15:54.512Z,101148.30
2018-06-01T17:18:20.286Z,101150.64
2018-06-01T17:20:46.030Z,101146.48
2018-06-01T17:23:11.792Z,101156.55
2018-06-01T17:25:37.550Z,101154.01
2018-06-01T17:28:03.311Z,101153.02
2018-06-01T17:30:29.089Z,101158.63
2018-06-01T17:32:54.819Z,101153.48
2018-06-01T17:35:20.569Z,101149.86
2018-06-01T17:37:46.310Z,101152.50
2018-06-01T17:40:12.063Z,101156.19
2018-06-01T17:42:38.237Z,101148.99
2018-06-01T17:45:04.163Z,101153.75
2018-06-01T17:47:30.387Z,101151.61
2018-06-01T17:49:56.167Z,101155.80
2018-06-01T17:52:21.920Z,101155.72
2018-06-01T17:54:47.665Z,101153.16
2018-06-01T17:57:13.429Z,101155.34
2018-06-01T17:59:39.161Z,101159.19
2018-06-01T18:02:04.904Z,101161.88
2018-06-01T18:04:30.648Z,101173.66
2018-06-01T18:06:56.420Z,101178.31
2018-06-01T18:09:22.156Z,101180.28
2018-06-01T18:11:47.902Z,101180.27
2018-06-01T18:14:13.664Z,101184.25
2018-06-01T18:16:39.425Z,101186.91
2018-06-01T18:19:05.161Z,101196.02
2018-06-01T18:21:30.922Z,101191.69
2018-06-01T18:23:57.987Z,101189.78
2018-06-01T18:26:23.846Z,101189.22
2018-06-01T18:28:49.612Z,101180.83
2018-06-01T18:31:15.370Z,101183.84
2018-06-01T18:33:41.180Z,101184.11
2018-06-01T18:36:06.925Z,101181.06
2018-06-01T18:38:32.660Z,101180.69
2018-06-01T18:40:58.663Z,101182.89
2018-06-01T18:43:24.579Z,101184.58
2018-06-01T18:45:50.456Z,101182.53
2018-06-01T18:48:16.564Z,101177.95
2018-06-01T18:50:42.305Z,101170.09
2018-06-01T18:53:08.263Z,101174.23
2018-06-01T18:55:34.114Z,101176.72
2018-06-01T18:58:00.741Z,101179.23
2018-06-01T19:00:26.580Z,101177.27
2018-06-01T19:02:52.335Z,101183.06
2018-06-01T19:05:18.068Z,101183.91
2018-06-01T19:07:43.819Z,101182.86
2018-06-01T19:10:09.549Z,101189.63
2018-06-01T19:12:35.288Z,101187.27
2018-06-01T19:15:01.021Z,101188.09
2018-06-01T19:17:26.812Z,101195.45
2018-06-01T19:19:52.514Z,101198.27
2018-06-01T19:22:18.256Z,101195.31
2018-06-01T19:24:44.094Z,101194.40
2018-06-01T19:27:09.959Z,101197.30
2018-06-01T19:29:35.766Z,101193.40
2018-06-01T19:32:01.564Z,101192.30
2018-06-01T19:34:27.370Z,101205.12
2018-06-01T19:36:53.077Z,101209.87
2018-06-01T19:39:18.826Z,101213.11
2018-06-01T19:41:44.588Z,101222.05
2018-06-01T19:44:10.312Z,101226.53
2018-06-01T19:46:36.069Z,101228.60
2018-06-01T19:49:01.849Z,101226.64
2018-06-01T19:51:27.572Z,101231.94
2018-06-01T19:53:53.308Z,101224.30
2018-06-01T19:56:19.064Z,101221.89
2018-06-01T19:58:44.963Z,101220.56
2018-06-01T20:01:10.828Z,101223.73
2018-06-01T20:03:36.588Z,101237.13
2018-06-01T20:06:02.356Z,101240.97
2018-06-01T20:08:28.102Z,101239.25
2018-06-01T20:10:53.852Z,101239.05
2018-06-01T20:13:20.431Z,101235.17
2018-06-01T20:15:46.126Z,101235.81
2018-06-01T20:18:11.868Z,101228.41
2018-06-01T20:20:37.620Z,101233.58
2018-06-01T20:23:03.380Z,101235.06
2018-06-01T20:25:29.104Z,101241.84
2018-06-01T20:27:54.839Z,101234.84
2018-06-01T20:30:20.587Z,101234.98
2018-06-01T20:32:46.332Z,101237.97
2018-06-01T20:35:12.069Z,101233.59
2018-06-01T20:37:37.808Z,101241.13
2018-06-01T20:40:03.564Z,101236.59
2018-06-01T20:42:29.318Z,101230.56
2018-06-01T20:44:55.044Z,101241.34
2018-06-01T20:47:20.792Z,101242.31
2018-06-01T20:49:46.518Z,101247.13
2018-06-01T20:52:12.269Z,101242.57
2018-06-01T20:54:37.999Z,101245.80
2018-06-01T20:57:03.753Z,101243.95
2018-06-01T20:59:29.494Z,101239.12
2018-06-01T21:01:55.277Z,101245.27
2018-06-01T21:04:21.097Z,101250.55
2018-06-01T21:06:46.921Z,101248.92
2018-06-01T21:09:12.839Z,101245.00
2018-06-01T21:11:38.688Z,101239.94
2018-06-01T21:14:04.600Z,101249.09
2018-06-01T21:16:30.596Z,101248.01
2018-06-01T21:18:56.453Z,101245.75
2018-06-01T21:21:22.235Z,101242.20
2018-06-01T21:23:48.136Z,101244.41
2018-06-01T21:26:14.090Z,101250.25
2018-06-01T21:28:39.860Z,101245.13
2018-06-01T21:31:05.591Z,101249.70
2018-06-01T21:33:31.347Z,101246.83
2018-06-01T21:35:57.085Z,101248.58
2018-06-01T21:38:22.849Z,101251.05
2018-06-01T21:40:48.590Z,101241.45
2018-06-01T21:43:14.336Z,101237.00
2018-06-01T21:45:40.069Z,101233.55
2018-06-01T21:48:05.818Z,101230.33
2018-06-01T21:50:31.557Z,101233.47
2018-06-01T21:52:57.309Z,101226.53
2018-06-01T21:55:23.048Z,101220.14
2018-06-01T21:57:48.785Z,101225.98
2018-06-01T22:00:14.531Z,101226.77
2018-06-01T22:02:40.290Z,101224.53
2018-06-01T22:05:06.017Z,101221.69
2018-06-01T22:07:31.777Z,101219.78
2018-06-01T22:09:57.506Z,101217.92
2018-06-01T22:12:23.244Z,101223.56
2018-06-01T22:14:48.993Z,101226.50
2018-06-01T22:17:14.720Z,101231.72
2018-06-01T22:19:40.489Z,101234.13
2018-06-01T22:22:06.239Z,101234.56
2018-06-01T22:24:31.970Z,101234.65
2018-06-01T22:26:57.708Z,101241.48
2018-06-01T22:29:23.462Z,101240.90
2018-06-01T22:31:49.192Z,101229.66
2018-06-01T22:34:14.940Z,101220.45
2018-06-01T22:36:40.672Z,101215.22
2018-06-01T22:39:06.417Z,101205.07
2018-06-01T22:41:32.154Z,101206.13
2018-06-01T22:43:57.896Z,101202.13
2018-06-01T22:46:23.627Z,101200.87
2018-06-01T22:48:49.377Z,101201.42
2018-06-01T22:51:15.120Z,101195.14
2018-06-01T22:53:40.871Z,101197.25
2018-06-01T22:56:06.608Z,101202.47
2018-06-01T22:58:32.360Z,101215.88
2018-06-01T23:00:58.349Z,101211.30
2018-06-01T23:03:24.108Z,101206.34
2018-06-01T23:05:49.883Z,101201.62
2018-06-01T23:08:15.644Z,101191.30
2018-06-01T23:10:41.391Z,101196.56
2018-06-01T23:13:07.177Z,101183.71
2018-06-01T23:15:32.951Z,101186.83
2018-06-01T23:17:58.687Z,101182.84
2018-06-01T23:20:24.440Z,101188.21
2018-06-01T23:22:50.180Z,101188.23
2018-06-01T23:25:15.918Z,101191.25
2018-06-01T23:27:41.754Z,101191.25
2018-06-01T23:30:07.508Z,101191.67
2018-06-01T23:32:34.644Z,101183.08
2018-06-01T23:35:01.209Z,101183.33
2018-06-01T23:37:26.950Z,101183.82
2018-06-01T23:39:52.693Z,101183.47
2018-06-01T23:42:18.460Z,101180.89
2018-06-01T23:44:44.211Z,101174.72
2018-06-01T23:47:10.212Z,101163.01
2018-06-01T23:49:35.966Z,101170.45
2018-06-01T23:52:02.694Z,101163.31
2018-06-01T23:54:28.445Z,101170.31
2018-06-01T23:56:54.168Z,101166.09
2018-06-01T23:59:19.921Z,101178.29
